sensor_id;sensor_type;location;lat;lon;timestamp;temperature;humidity
58261;DHT22;44058;52.898;6.502;2022-10-16T00:01:16;13.00;99.90
58261;DHT22;44058;52.898;6.502;2022-10-16T00:03:43;13.00;99.90
58261;DHT22;44058;52.898;6.502;2022-10-16T00:06:10;13.00;99.90
58261;DHT22;44058;52.898;6.502;2022-10-16T00:08:37;13.00;99.90
58261;DHT22;44058;52.898;6.502;2022-10-16T00:11:09;13.00;99.90
58261;DHT22;44058;52.898;6.502;2022-10-16T00:13:38;13.00;99.90
58261;DHT22;44058;52.898;6.502;2022-10-16T00:16:04;13.00;99.90
58261;DHT22;44058;52.898;6.502;2022-10-16T00:18:30;13.00;99.90
58261;DHT22;44058;52.898;6.502;2022-10-16T00:21:02;13.00;99.90
58261;DHT22;44058;52.898;6.502;2022-10-16T00:23:28;13.00;99.90
58261;DHT22;44058;52.898;6.502;2022-10-16T00:25:58;13.00;99.90
58261;DHT22;44058;52.898;6.502;2022-10-16T00:28:24;13.10;99.90
58261;DHT22;44058;52.898;6.502;2022-10-16T00:30:50;13.10;99.90
58261;DHT22;44058;52.898;6.502;2022-10-16T00:33:16;13.10;99.90
58261;DHT22;44058;52.898;6.502;2022-10-16T00:35:42;13.10;99.90
58261;DHT22;44058;52.898;6.502;2022-10-16T00:38:08;13.00;99.90
58261;DHT22;44058;52.898;6.502;2022-10-16T00:40:34;13.10;99.90
58261;DHT22;44058;52.898;6.502;2022-10-16T00:43:00;13.10;99.90
58261;DHT22;44058;52.898;6.502;2022-10-16T00:45:25;13.10;99.90
58261;DHT22;44058;52.898;6.502;2022-10-16T00:47:52;13.00;99.90
58261;DHT22;44058;52.898;6.502;2022-10-16T00:50:31;13.10;99.90
58261;DHT22;44058;52.898;6.502;2022-10-16T00:52:58;13.00;99.90
58261;DHT22;44058;52.898;6.502;2022-10-16T00:55:26;13.10;99.90
58261;DHT22;44058;52.898;6.502;2022-10-16T00:57:53;13.00;99.90
58261;DHT22;44058;52.898;6.502;2022-10-16T01:00:25;13.00;99.90
58261;DHT22;44058;52.898;6.502;2022-10-16T01:05:21;13.00;99.90
58261;DHT22;44058;52.898;6.502;2022-10-16T01:07:56;13.00;99.90
58261;DHT22;44058;52.898;6.502;2022-10-16T01:10:30;13.00;99.90
58261;DHT22;44058;52.898;6.502;2022-10-16T01:13:07;13.00;99.90
58261;DHT22;44058;52.898;6.502;2022-10-16T01:15:59;13.00;99.90
58261;DHT22;44058;52.898;6.502;2022-10-16T01:18:40;13.00;99.90
58261;DHT22;44058;52.898;6.502;2022-10-16T01:29:06;13.00;99.90
58261;DHT22;44058;52.898;6.502;2022-10-16T01:31:35;13.00;99.90
58261;DHT22;44058;52.898;6.502;2022-10-16T01:34:06;13.00;99.90
58261;DHT22;44058;52.898;6.502;2022-10-16T01:36:41;13.00;99.90
58261;DHT22;44058;52.898;6.502;2022-10-16T01:39:10;13.00;99.90
58261;DHT22;44058;52.898;6.502;2022-10-16T01:41:41;13.00;99.90
58261;DHT22;44058;52.898;6.502;2022-10-16T01:44:18;13.00;99.90
58261;DHT22;44058;52.898;6.502;2022-10-16T01:46:48;13.00;99.90
58261;DHT22;44058;52.898;6.502;2022-10-16T01:49:16;13.00;99.90
58261;DHT22;44058;52.898;6.502;2022-10-16T01:51:45;13.00;99.90
58261;DHT22;44058;52.898;6.502;2022-10-16T01:54:13;13.10;99.90
58261;DHT22;44058;52.898;6.502;2022-10-16T01:56:41;13.10;99.90
58261;DHT22;44058;52.898;6.502;2022-10-16T01:59:14;13.10;99.90
58261;DHT22;44058;52.898;6.502;2022-10-16T02:01:44;13.10;99.90
58261;DHT22;44058;52.898;6.502;2022-10-16T02:04:23;13.10;99.90
58261;DHT22;44058;52.898;6.502;2022-10-16T02:06:50;13.10;99.90
58261;DHT22;44058;52.898;6.502;2022-10-16T02:09:15;13.10;99.90
58261;DHT22;44058;52.898;6.502;2022-10-16T02:11:43;13.10;99.90
58261;DHT22;44058;52.898;6.502;2022-10-16T02:14:09;13.10;99.90
58261;DHT22;44058;52.898;6.502;2022-10-16T02:16:40;13.10;99.90
58261;DHT22;44058;52.898;6.502;2022-10-16T02:19:07;13.10;99.90
58261;DHT22;44058;52.898;6.502;2022-10-16T02:21:56;13.10;99.90
58261;DHT22;44058;52.898;6.502;2022-10-16T02:27:11;13.10;99.90
58261;DHT22;44058;52.898;6.502;2022-10-16T02:29:42;13.10;99.90
58261;DHT22;44058;52.898;6.502;2022-10-16T02:32:12;13.10;99.90
58261;DHT22;44058;52.898;6.502;2022-10-16T02:34:44;13.10;99.90
58261;DHT22;44058;52.898;6.502;2022-10-16T02:37:10;13.10;99.90
58261;DHT22;44058;52.898;6.502;2022-10-16T02:39:37;13.10;99.90
58261;DHT22;44058;52.898;6.502;2022-10-16T02:42:03;13.10;99.90
58261;DHT22;44058;52.898;6.502;2022-10-16T02:44:29;13.10;99.90
58261;DHT22;44058;52.898;6.502;2022-10-16T02:46:55;13.10;99.90
58261;DHT22;44058;52.898;6.502;2022-10-16T02:49:21;13.20;99.90
58261;DHT22;44058;52.898;6.502;2022-10-16T02:51:46;13.10;99.90
58261;DHT22;44058;52.898;6.502;2022-10-16T02:54:12;13.10;99.90
58261;DHT22;44058;52.898;6.502;2022-10-16T02:56:38;13.10;99.90
58261;DHT22;44058;52.898;6.502;2022-10-16T02:59:04;13.10;99.90
58261;DHT22;44058;52.898;6.502;2022-10-16T03:01:29;13.10;99.90
58261;DHT22;44058;52.898;6.502;2022-10-16T03:03:55;13.10;99.90
58261;DHT22;44058;52.898;6.502;2022-10-16T03:06:21;13.10;99.90
58261;DHT22;44058;52.898;6.502;2022-10-16T03:08:47;13.10;99.90
58261;DHT22;44058;52.898;6.502;2022-10-16T03:11:12;13.10;99.90
58261;DHT22;44058;52.898;6.502;2022-10-16T03:13:38;13.10;99.90
58261;DHT22;44058;52.898;6.502;2022-10-16T03:16:04;13.10;99.90
58261;DHT22;44058;52.898;6.502;2022-10-16T03:18:29;13.10;99.90
58261;DHT22;44058;52.898;6.502;2022-10-16T03:20:55;13.10;99.90
58261;DHT22;44058;52.898;6.502;2022-10-16T03:23:21;13.10;99.90
58261;DHT22;44058;52.898;6.502;2022-10-16T03:25:47;13.10;99.90
58261;DHT22;44058;52.898;6.502;2022-10-16T03:28:12;13.10;99.90
58261;DHT22;44058;52.898;6.502;2022-10-16T03:30:38;13.10;99.90
58261;DHT22;44058;52.898;6.502;2022-10-16T03:33:05;13.10;99.90
58261;DHT22;44058;52.898;6.502;2022-10-16T03:35:31;13.10;99.90
58261;DHT22;44058;52.898;6.502;2022-10-16T03:37:58;13.10;99.90
58261;DHT22;44058;52.898;6.502;2022-10-16T03:40:24;13.10;99.90
58261;DHT22;44058;52.898;6.502;2022-10-16T03:42:50;13.10;99.90
58261;DHT22;44058;52.898;6.502;2022-10-16T03:45:16;13.10;99.90
58261;DHT22;44058;52.898;6.502;2022-10-16T03:47:42;13.10;99.90
58261;DHT22;44058;52.898;6.502;2022-10-16T03:50:08;13.10;99.90
58261;DHT22;44058;52.898;6.502;2022-10-16T03:52:34;13.10;99.90
58261;DHT22;44058;52.898;6.502;2022-10-16T03:55:00;13.10;99.90
58261;DHT22;44058;52.898;6.502;2022-10-16T03:57:26;13.10;99.90
58261;DHT22;44058;52.898;6.502;2022-10-16T03:59:51;13.10;99.90
58261;DHT22;44058;52.898;6.502;2022-10-16T04:02:17;13.00;99.90
58261;DHT22;44058;52.898;6.502;2022-10-16T04:04:43;13.00;99.90
58261;DHT22;44058;52.898;6.502;2022-10-16T04:07:08;13.00;99.90
58261;DHT22;44058;52.898;6.502;2022-10-16T04:09:34;13.00;99.90
58261;DHT22;44058;52.898;6.502;2022-10-16T04:12:00;13.00;99.90
58261;DHT22;44058;52.898;6.502;2022-10-16T04:14:25;13.00;99.90
58261;DHT22;44058;52.898;6.502;2022-10-16T04:16:51;13.00;99.90
58261;DHT22;44058;52.898;6.502;2022-10-16T04:19:17;13.00;99.90
58261;DHT22;44058;52.898;6.502;2022-10-16T04:21:42;13.00;99.90
58261;DHT22;44058;52.898;6.502;2022-10-16T04:24:08;13.00;99.90
58261;DHT22;44058;52.898;6.502;2022-10-16T04:26:34;13.00;99.90
58261;DHT22;44058;52.898;6.502;2022-10-16T04:28:59;13.00;99.90
58261;DHT22;44058;52.898;6.502;2022-10-16T04:31:25;13.00;99.90
58261;DHT22;44058;52.898;6.502;2022-10-16T04:33:51;12.90;99.90
58261;DHT22;44058;52.898;6.502;2022-10-16T04:36:16;12.90;99.90
58261;DHT22;44058;52.898;6.502;2022-10-16T04:38:42;12.90;99.90
58261;DHT22;44058;52.898;6.502;2022-10-16T04:41:09;12.90;99.90
58261;DHT22;44058;52.898;6.502;2022-10-16T04:43:34;12.90;99.90
58261;DHT22;44058;52.898;6.502;2022-10-16T04:46:00;12.90;99.90
58261;DHT22;44058;52.898;6.502;2022-10-16T04:48:27;12.90;99.90
58261;DHT22;44058;52.898;6.502;2022-10-16T04:50:53;12.90;99.90
58261;DHT22;44058;52.898;6.502;2022-10-16T04:53:18;12.90;99.90
58261;DHT22;44058;52.898;6.502;2022-10-16T04:55:44;12.90;99.90
58261;DHT22;44058;52.898;6.502;2022-10-16T04:58:10;13.00;99.90
58261;DHT22;44058;52.898;6.502;2022-10-16T05:00:36;12.90;99.90
58261;DHT22;44058;52.898;6.502;2022-10-16T05:03:01;13.00;99.90
58261;DHT22;44058;52.898;6.502;2022-10-16T05:05:31;13.00;99.90
58261;DHT22;44058;52.898;6.502;2022-10-16T05:07:57;13.00;99.90
58261;DHT22;44058;52.898;6.502;2022-10-16T05:10:22;13.00;99.90
58261;DHT22;44058;52.898;6.502;2022-10-16T05:12:48;13.00;99.90
58261;DHT22;44058;52.898;6.502;2022-10-16T05:15:14;13.00;99.90
58261;DHT22;44058;52.898;6.502;2022-10-16T05:17:39;13.00;99.90
58261;DHT22;44058;52.898;6.502;2022-10-16T05:20:06;13.00;99.90
58261;DHT22;44058;52.898;6.502;2022-10-16T05:22:31;13.00;99.90
58261;DHT22;44058;52.898;6.502;2022-10-16T05:24:57;13.00;99.90
58261;DHT22;44058;52.898;6.502;2022-10-16T05:27:23;13.00;99.90
58261;DHT22;44058;52.898;6.502;2022-10-16T05:29:49;13.10;99.90
58261;DHT22;44058;52.898;6.502;2022-10-16T05:32:16;13.00;99.90
58261;DHT22;44058;52.898;6.502;2022-10-16T05:34:42;13.00;99.90
58261;DHT22;44058;52.898;6.502;2022-10-16T05:37:08;13.00;99.90
58261;DHT22;44058;52.898;6.502;2022-10-16T05:39:34;13.10;99.90
58261;DHT22;44058;52.898;6.502;2022-10-16T05:42:00;13.00;99.90
58261;DHT22;44058;52.898;6.502;2022-10-16T05:44:26;13.10;99.90
58261;DHT22;44058;52.898;6.502;2022-10-16T05:46:52;13.10;99.90
58261;DHT22;44058;52.898;6.502;2022-10-16T05:49:18;13.10;99.90
58261;DHT22;44058;52.898;6.502;2022-10-16T05:51:43;13.10;99.90
58261;DHT22;44058;52.898;6.502;2022-10-16T05:54:09;13.10;99.90
58261;DHT22;44058;52.898;6.502;2022-10-16T05:56:35;13.00;99.90
58261;DHT22;44058;52.898;6.502;2022-10-16T05:59:00;13.10;99.90
58261;DHT22;44058;52.898;6.502;2022-10-16T06:01:26;13.10;99.90
58261;DHT22;44058;52.898;6.502;2022-10-16T06:03:52;13.00;99.90
58261;DHT22;44058;52.898;6.502;2022-10-16T06:06:20;13.00;99.90
58261;DHT22;44058;52.898;6.502;2022-10-16T06:08:47;13.10;99.90
58261;DHT22;44058;52.898;6.502;2022-10-16T06:11:20;13.00;99.90
58261;DHT22;44058;52.898;6.502;2022-10-16T06:13:55;13.10;99.90
58261;DHT22;44058;52.898;6.502;2022-10-16T06:16:22;13.10;99.90
58261;DHT22;44058;52.898;6.502;2022-10-16T06:18:51;13.10;99.90
58261;DHT22;44058;52.898;6.502;2022-10-16T06:21:22;13.00;99.90
58261;DHT22;44058;52.898;6.502;2022-10-16T06:23:50;13.00;99.90
58261;DHT22;44058;52.898;6.502;2022-10-16T06:26:18;13.00;99.90
58261;DHT22;44058;52.898;6.502;2022-10-16T06:28:45;13.00;99.90
58261;DHT22;44058;52.898;6.502;2022-10-16T06:31:11;13.00;99.90
58261;DHT22;44058;52.898;6.502;2022-10-16T06:33:38;13.10;99.90
58261;DHT22;44058;52.898;6.502;2022-10-16T06:36:10;13.10;99.90
58261;DHT22;44058;52.898;6.502;2022-10-16T06:38:37;13.10;99.90
58261;DHT22;44058;52.898;6.502;2022-10-16T06:41:04;13.10;99.90
58261;DHT22;44058;52.898;6.502;2022-10-16T06:43:32;13.10;99.90
58261;DHT22;44058;52.898;6.502;2022-10-16T06:45:59;13.10;99.90
58261;DHT22;44058;52.898;6.502;2022-10-16T06:48:26;13.10;99.90
58261;DHT22;44058;52.898;6.502;2022-10-16T06:51:10;13.10;99.90
58261;DHT22;44058;52.898;6.502;2022-10-16T06:53:37;13.10;99.90
58261;DHT22;44058;52.898;6.502;2022-10-16T06:56:12;13.10;99.90
58261;DHT22;44058;52.898;6.502;2022-10-16T06:58:38;13.10;99.90
58261;DHT22;44058;52.898;6.502;2022-10-16T07:01:05;13.10;99.90
58261;DHT22;44058;52.898;6.502;2022-10-16T07:03:31;13.10;99.90
58261;DHT22;44058;52.898;6.502;2022-10-16T07:06:01;13.10;99.90
58261;DHT22;44058;52.898;6.502;2022-10-16T07:08:34;13.10;99.90
58261;DHT22;44058;52.898;6.502;2022-10-16T07:11:05;13.10;99.90
58261;DHT22;44058;52.898;6.502;2022-10-16T07:13:35;13.20;99.90
58261;DHT22;44058;52.898;6.502;2022-10-16T07:16:18;13.20;99.90
58261;DHT22;44058;52.898;6.502;2022-10-16T07:18:45;13.20;99.90
58261;DHT22;44058;52.898;6.502;2022-10-16T07:21:14;13.20;99.90
58261;DHT22;44058;52.898;6.502;2022-10-16T07:23:41;13.20;99.90
58261;DHT22;44058;52.898;6.502;2022-10-16T07:26:09;13.20;99.90
58261;DHT22;44058;52.898;6.502;2022-10-16T07:28:36;13.30;99.90
58261;DHT22;44058;52.898;6.502;2022-10-16T07:31:07;13.30;99.90
58261;DHT22;44058;52.898;6.502;2022-10-16T07:33:34;13.30;99.90
58261;DHT22;44058;52.898;6.502;2022-10-16T07:36:00;13.40;99.90
58261;DHT22;44058;52.898;6.502;2022-10-16T07:38:26;13.40;99.90
58261;DHT22;44058;52.898;6.502;2022-10-16T07:40:59;13.40;99.90
58261;DHT22;44058;52.898;6.502;2022-10-16T07:43:26;13.30;99.90
58261;DHT22;44058;52.898;6.502;2022-10-16T07:45:53;13.40;99.90
58261;DHT22;44058;52.898;6.502;2022-10-16T07:48:19;13.40;99.90
58261;DHT22;44058;52.898;6.502;2022-10-16T07:50:45;13.50;99.90
58261;DHT22;44058;52.898;6.502;2022-10-16T07:53:11;13.50;99.90
58261;DHT22;44058;52.898;6.502;2022-10-16T07:55:37;13.50;99.90
58261;DHT22;44058;52.898;6.502;2022-10-16T07:58:09;13.50;99.90
58261;DHT22;44058;52.898;6.502;2022-10-16T08:00:38;13.60;99.90
58261;DHT22;44058;52.898;6.502;2022-10-16T08:03:04;13.60;99.90
58261;DHT22;44058;52.898;6.502;2022-10-16T08:05:31;13.60;99.90
58261;DHT22;44058;52.898;6.502;2022-10-16T08:07:58;13.70;99.90
58261;DHT22;44058;52.898;6.502;2022-10-16T08:10:26;13.70;99.90
58261;DHT22;44058;52.898;6.502;2022-10-16T08:12:52;13.70;99.90
58261;DHT22;44058;52.898;6.502;2022-10-16T08:15:19;13.80;99.90
58261;DHT22;44058;52.898;6.502;2022-10-16T08:17:55;13.90;99.90
58261;DHT22;44058;52.898;6.502;2022-10-16T08:20:20;14.00;99.90
58261;DHT22;44058;52.898;6.502;2022-10-16T08:22:46;14.00;99.90
58261;DHT22;44058;52.898;6.502;2022-10-16T08:25:12;14.00;99.90
58261;DHT22;44058;52.898;6.502;2022-10-16T08:27:37;14.00;99.90
58261;DHT22;44058;52.898;6.502;2022-10-16T08:30:03;14.10;99.90
58261;DHT22;44058;52.898;6.502;2022-10-16T08:32:29;14.20;99.90
58261;DHT22;44058;52.898;6.502;2022-10-16T08:34:55;14.20;99.90
58261;DHT22;44058;52.898;6.502;2022-10-16T08:37:21;14.40;99.90
58261;DHT22;44058;52.898;6.502;2022-10-16T08:39:46;14.40;99.90
58261;DHT22;44058;52.898;6.502;2022-10-16T08:42:44;14.50;99.90
58261;DHT22;44058;52.898;6.502;2022-10-16T08:50:55;14.70;99.90
58261;DHT22;44058;52.898;6.502;2022-10-16T08:53:33;14.80;99.90
58261;DHT22;44058;52.898;6.502;2022-10-16T08:56:05;14.80;99.90
58261;DHT22;44058;52.898;6.502;2022-10-16T08:58:31;14.80;99.90
58261;DHT22;44058;52.898;6.502;2022-10-16T09:01:00;14.80;99.90
58261;DHT22;44058;52.898;6.502;2022-10-16T09:03:32;14.90;99.90
58261;DHT22;44058;52.898;6.502;2022-10-16T09:06:36;15.10;99.90
58261;DHT22;44058;52.898;6.502;2022-10-16T09:12:15;15.40;99.90
58261;DHT22;44058;52.898;6.502;2022-10-16T09:17:37;15.70;99.90
58261;DHT22;44058;52.898;6.502;2022-10-16T09:20:18;15.80;99.90
58261;DHT22;44058;52.898;6.502;2022-10-16T09:22:44;15.90;99.90
58261;DHT22;44058;52.898;6.502;2022-10-16T09:25:13;16.00;99.90
58261;DHT22;44058;52.898;6.502;2022-10-16T09:27:39;16.10;99.90
58261;DHT22;44058;52.898;6.502;2022-10-16T09:30:17;16.20;99.90
58261;DHT22;44058;52.898;6.502;2022-10-16T09:32:45;16.20;99.90
58261;DHT22;44058;52.898;6.502;2022-10-16T09:35:18;16.20;99.90
58261;DHT22;44058;52.898;6.502;2022-10-16T09:37:47;16.30;99.90
58261;DHT22;44058;52.898;6.502;2022-10-16T09:40:28;16.40;99.90
58261;DHT22;44058;52.898;6.502;2022-10-16T09:43:26;16.40;99.90
58261;DHT22;44058;52.898;6.502;2022-10-16T09:48:44;16.40;99.90
58261;DHT22;44058;52.898;6.502;2022-10-16T09:51:37;16.40;99.90
58261;DHT22;44058;52.898;6.502;2022-10-16T09:54:14;16.50;99.90
58261;DHT22;44058;52.898;6.502;2022-10-16T09:56:40;16.50;99.90
58261;DHT22;44058;52.898;6.502;2022-10-16T09:59:18;16.50;99.90
58261;DHT22;44058;52.898;6.502;2022-10-16T10:01:49;16.60;99.90
58261;DHT22;44058;52.898;6.502;2022-10-16T10:04:20;16.70;99.90
58261;DHT22;44058;52.898;6.502;2022-10-16T10:06:46;16.70;99.90
58261;DHT22;44058;52.898;6.502;2022-10-16T10:09:28;16.70;99.90
58261;DHT22;44058;52.898;6.502;2022-10-16T10:11:57;16.70;99.90
58261;DHT22;44058;52.898;6.502;2022-10-16T10:14:39;16.70;99.90
58261;DHT22;44058;52.898;6.502;2022-10-16T10:17:16;16.70;99.90
58261;DHT22;44058;52.898;6.502;2022-10-16T10:30:59;16.50;99.90
58261;DHT22;44058;52.898;6.502;2022-10-16T10:36:14;16.60;99.90
58261;DHT22;44058;52.898;6.502;2022-10-16T10:44:51;16.60;99.90
58261;DHT22;44058;52.898;6.502;2022-10-16T10:50:12;16.50;99.90
58261;DHT22;44058;52.898;6.502;2022-10-16T10:52:59;16.60;99.90
58261;DHT22;44058;52.898;6.502;2022-10-16T10:55:40;16.70;99.90
58261;DHT22;44058;52.898;6.502;2022-10-16T10:59:08;16.70;99.90
58261;DHT22;44058;52.898;6.502;2022-10-16T11:01:18;16.70;99.90
58261;DHT22;44058;52.898;6.502;2022-10-16T11:04:15;16.60;99.90
58261;DHT22;44058;52.898;6.502;2022-10-16T11:09:30;16.60;99.90
58261;DHT22;44058;52.898;6.502;2022-10-16T11:12:11;16.70;99.90
58261;DHT22;44058;52.898;6.502;2022-10-16T11:14:48;16.60;99.90
58261;DHT22;44058;52.898;6.502;2022-10-16T11:17:19;16.70;99.90
58261;DHT22;44058;52.898;6.502;2022-10-16T11:22:41;16.90;99.90
58261;DHT22;44058;52.898;6.502;2022-10-16T11:25:24;17.00;99.90
58261;DHT22;44058;52.898;6.502;2022-10-16T11:28:14;17.10;99.90
58261;DHT22;44058;52.898;6.502;2022-10-16T11:36:13;16.90;99.90
58261;DHT22;44058;52.898;6.502;2022-10-16T11:43:58;16.50;99.90
58261;DHT22;44058;52.898;6.502;2022-10-16T11:46:26;16.40;99.90
58261;DHT22;44058;52.898;6.502;2022-10-16T11:49:03;16.30;99.90
58261;DHT22;44058;52.898;6.502;2022-10-16T11:51:48;16.20;99.90
58261;DHT22;44058;52.898;6.502;2022-10-16T11:54:45;16.30;99.90
58261;DHT22;44058;52.898;6.502;2022-10-16T11:57:30;16.40;99.90
58261;DHT22;44058;52.898;6.502;2022-10-16T12:06:15;16.60;99.90
58261;DHT22;44058;52.898;6.502;2022-10-16T12:08:45;16.80;99.90
58261;DHT22;44058;52.898;6.502;2022-10-16T12:14:59;16.90;99.90
58261;DHT22;44058;52.898;6.502;2022-10-16T12:16:59;16.90;99.90
58261;DHT22;44058;52.898;6.502;2022-10-16T12:19:27;16.80;99.90
58261;DHT22;44058;52.898;6.502;2022-10-16T12:21:55;16.70;99.90
58261;DHT22;44058;52.898;6.502;2022-10-16T12:24:39;16.80;99.90
58261;DHT22;44058;52.898;6.502;2022-10-16T12:27:29;16.90;99.90
58261;DHT22;44058;52.898;6.502;2022-10-16T12:29:58;16.90;99.90
58261;DHT22;44058;52.898;6.502;2022-10-16T12:32:37;16.90;99.90
58261;DHT22;44058;52.898;6.502;2022-10-16T12:35:06;16.70;99.90
58261;DHT22;44058;52.898;6.502;2022-10-16T12:37:42;16.60;99.90
58261;DHT22;44058;52.898;6.502;2022-10-16T12:40:15;16.70;99.90
58261;DHT22;44058;52.898;6.502;2022-10-16T12:42:42;16.80;99.90
58261;DHT22;44058;52.898;6.502;2022-10-16T12:45:26;16.90;99.90
58261;DHT22;44058;52.898;6.502;2022-10-16T12:47:53;17.00;99.90
58261;DHT22;44058;52.898;6.502;2022-10-16T12:50:35;17.10;99.90
58261;DHT22;44058;52.898;6.502;2022-10-16T12:53:03;17.20;99.90
58261;DHT22;44058;52.898;6.502;2022-10-16T13:09:55;17.00;99.90
58261;DHT22;44058;52.898;6.502;2022-10-16T13:23:44;17.10;99.90
58261;DHT22;44058;52.898;6.502;2022-10-16T13:26:37;17.00;99.90
58261;DHT22;44058;52.898;6.502;2022-10-16T13:29:05;17.10;99.90
58261;DHT22;44058;52.898;6.502;2022-10-16T13:31:33;17.00;99.90
58261;DHT22;44058;52.898;6.502;2022-10-16T13:34:00;16.90;99.90
58261;DHT22;44058;52.898;6.502;2022-10-16T13:36:28;16.80;99.90
58261;DHT22;44058;52.898;6.502;2022-10-16T13:39:21;16.90;99.90
58261;DHT22;44058;52.898;6.502;2022-10-16T13:42:12;16.90;99.90
58261;DHT22;44058;52.898;6.502;2022-10-16T13:44:53;17.00;99.90
58261;DHT22;44058;52.898;6.502;2022-10-16T13:47:27;17.00;99.90
58261;DHT22;44058;52.898;6.502;2022-10-16T13:52:27;17.10;99.90
58261;DHT22;44058;52.898;6.502;2022-10-16T13:54:54;17.30;99.90
58261;DHT22;44058;52.898;6.502;2022-10-16T13:57:24;17.30;99.90
58261;DHT22;44058;52.898;6.502;2022-10-16T13:59:50;17.40;99.90
58261;DHT22;44058;52.898;6.502;2022-10-16T14:02:37;17.40;99.90
58261;DHT22;44058;52.898;6.502;2022-10-16T14:05:08;17.50;99.90
58261;DHT22;44058;52.898;6.502;2022-10-16T14:07:35;17.50;99.90
58261;DHT22;44058;52.898;6.502;2022-10-16T14:10:07;17.50;99.90
58261;DHT22;44058;52.898;6.502;2022-10-16T14:12:43;17.50;99.90
58261;DHT22;44058;52.898;6.502;2022-10-16T14:15:19;17.50;99.90
58261;DHT22;44058;52.898;6.502;2022-10-16T14:17:49;17.50;99.90
58261;DHT22;44058;52.898;6.502;2022-10-16T14:20:16;17.40;99.90
58261;DHT22;44058;52.898;6.502;2022-10-16T14:22:42;17.40;99.90
58261;DHT22;44058;52.898;6.502;2022-10-16T14:25:27;17.20;99.90
58261;DHT22;44058;52.898;6.502;2022-10-16T14:28:05;17.20;99.90
58261;DHT22;44058;52.898;6.502;2022-10-16T14:30:58;17.10;99.90
58261;DHT22;44058;52.898;6.502;2022-10-16T14:33:32;17.10;99.90
58261;DHT22;44058;52.898;6.502;2022-10-16T14:36:21;17.10;99.90
58261;DHT22;44058;52.898;6.502;2022-10-16T14:39:03;17.00;99.90
58261;DHT22;44058;52.898;6.502;2022-10-16T14:41:31;17.00;99.90
58261;DHT22;44058;52.898;6.502;2022-10-16T14:44:09;16.90;99.90
58261;DHT22;44058;52.898;6.502;2022-10-16T14:46:38;16.80;99.90
58261;DHT22;44058;52.898;6.502;2022-10-16T14:49:16;16.80;99.90
58261;DHT22;44058;52.898;6.502;2022-10-16T14:51:43;16.80;99.90
58261;DHT22;44058;52.898;6.502;2022-10-16T14:54:14;16.70;99.90
58261;DHT22;44058;52.898;6.502;2022-10-16T14:56:56;16.70;99.90
58261;DHT22;44058;52.898;6.502;2022-10-16T14:59:33;16.80;99.90
58261;DHT22;44058;52.898;6.502;2022-10-16T15:01:59;16.70;99.90
58261;DHT22;44058;52.898;6.502;2022-10-16T15:04:26;16.80;99.90
58261;DHT22;44058;52.898;6.502;2022-10-16T15:06:51;16.70;99.90
58261;DHT22;44058;52.898;6.502;2022-10-16T15:09:17;16.80;99.90
58261;DHT22;44058;52.898;6.502;2022-10-16T15:11:43;16.80;99.90
58261;DHT22;44058;52.898;6.502;2022-10-16T15:14:12;16.80;99.90
58261;DHT22;44058;52.898;6.502;2022-10-16T15:16:39;16.80;99.90
58261;DHT22;44058;52.898;6.502;2022-10-16T15:19:05;16.70;99.90
58261;DHT22;44058;52.898;6.502;2022-10-16T15:21:32;16.70;99.90
58261;DHT22;44058;52.898;6.502;2022-10-16T15:23:59;16.70;99.90
58261;DHT22;44058;52.898;6.502;2022-10-16T15:26:26;16.70;99.90
58261;DHT22;44058;52.898;6.502;2022-10-16T15:28:52;16.70;99.90
58261;DHT22;44058;52.898;6.502;2022-10-16T15:31:18;16.60;99.90
58261;DHT22;44058;52.898;6.502;2022-10-16T15:33:44;16.60;99.90
58261;DHT22;44058;52.898;6.502;2022-10-16T15:36:16;16.50;99.90
58261;DHT22;44058;52.898;6.502;2022-10-16T15:38:42;16.40;99.90
58261;DHT22;44058;52.898;6.502;2022-10-16T15:41:08;16.40;99.90
58261;DHT22;44058;52.898;6.502;2022-10-16T15:43:34;16.30;99.90
58261;DHT22;44058;52.898;6.502;2022-10-16T15:46:03;16.30;99.90
58261;DHT22;44058;52.898;6.502;2022-10-16T15:48:29;16.20;99.90
58261;DHT22;44058;52.898;6.502;2022-10-16T15:50:56;16.20;99.90
58261;DHT22;44058;52.898;6.502;2022-10-16T15:53:22;16.10;99.90
58261;DHT22;44058;52.898;6.502;2022-10-16T15:55:47;15.90;99.90
58261;DHT22;44058;52.898;6.502;2022-10-16T15:58:14;15.90;99.90
58261;DHT22;44058;52.898;6.502;2022-10-16T16:00:39;15.80;99.90
58261;DHT22;44058;52.898;6.502;2022-10-16T16:03:05;15.80;99.90
58261;DHT22;44058;52.898;6.502;2022-10-16T16:05:31;15.80;99.90
58261;DHT22;44058;52.898;6.502;2022-10-16T16:07:59;15.80;99.90
58261;DHT22;44058;52.898;6.502;2022-10-16T16:10:24;15.70;99.90
58261;DHT22;44058;52.898;6.502;2022-10-16T16:12:50;15.70;99.90
58261;DHT22;44058;52.898;6.502;2022-10-16T16:15:20;15.70;99.90
58261;DHT22;44058;52.898;6.502;2022-10-16T16:17:46;15.60;99.90
58261;DHT22;44058;52.898;6.502;2022-10-16T16:20:12;15.60;99.90
58261;DHT22;44058;52.898;6.502;2022-10-16T16:22:38;15.50;99.90
58261;DHT22;44058;52.898;6.502;2022-10-16T16:25:05;15.50;99.90
58261;DHT22;44058;52.898;6.502;2022-10-16T16:27:31;15.40;99.90
58261;DHT22;44058;52.898;6.502;2022-10-16T16:30:00;15.40;99.90
58261;DHT22;44058;52.898;6.502;2022-10-16T16:32:25;15.30;99.90
58261;DHT22;44058;52.898;6.502;2022-10-16T16:34:51;15.20;99.90
58261;DHT22;44058;52.898;6.502;2022-10-16T16:37:17;15.10;99.90
58261;DHT22;44058;52.898;6.502;2022-10-16T16:39:43;15.10;99.90
58261;DHT22;44058;52.898;6.502;2022-10-16T16:42:09;14.90;99.90
58261;DHT22;44058;52.898;6.502;2022-10-16T16:44:36;14.90;99.90
58261;DHT22;44058;52.898;6.502;2022-10-16T16:47:03;14.70;99.90
58261;DHT22;44058;52.898;6.502;2022-10-16T16:49:29;14.70;99.90
58261;DHT22;44058;52.898;6.502;2022-10-16T16:51:54;14.70;99.90
58261;DHT22;44058;52.898;6.502;2022-10-16T16:54:20;14.70;99.90
58261;DHT22;44058;52.898;6.502;2022-10-16T16:56:46;14.70;99.90
58261;DHT22;44058;52.898;6.502;2022-10-16T16:59:15;14.70;99.90
58261;DHT22;44058;52.898;6.502;2022-10-16T17:01:41;14.70;99.90
58261;DHT22;44058;52.898;6.502;2022-10-16T17:04:08;14.60;99.90
58261;DHT22;44058;52.898;6.502;2022-10-16T17:06:34;14.60;99.90
58261;DHT22;44058;52.898;6.502;2022-10-16T17:09:02;14.50;99.90
58261;DHT22;44058;52.898;6.502;2022-10-16T17:11:29;14.50;99.90
58261;DHT22;44058;52.898;6.502;2022-10-16T17:13:57;14.40;99.90
58261;DHT22;44058;52.898;6.502;2022-10-16T17:16:26;14.30;99.90
58261;DHT22;44058;52.898;6.502;2022-10-16T17:18:52;14.30;99.90
58261;DHT22;44058;52.898;6.502;2022-10-16T17:21:18;14.10;99.90
58261;DHT22;44058;52.898;6.502;2022-10-16T17:23:44;14.10;99.90
58261;DHT22;44058;52.898;6.502;2022-10-16T17:26:15;14.10;99.90
58261;DHT22;44058;52.898;6.502;2022-10-16T17:28:41;14.10;99.90
58261;DHT22;44058;52.898;6.502;2022-10-16T17:31:26;14.10;99.90